createdAt,value
2019-03-24T00:01:26.579Z,31.20
2019-03-24T00:03:59.308Z,31.52
2019-03-24T00:06:31.774Z,30.97
2019-03-24T00:09:05.031Z,31.37
2019-03-24T00:11:37.767Z,32.95
2019-03-24T00:14:10.298Z,30.77
2019-03-24T00:16:42.693Z,30.48
2019-03-24T00:19:15.289Z,29.95
2019-03-24T00:21:47.564Z,31.05
2019-03-24T00:24:20.070Z,32.33
2019-03-24T00:26:52.440Z,33.30
2019-03-24T00:31:56.570Z,31.10
2019-03-24T00:34:29.318Z,31.23
2019-03-24T00:37:01.316Z,30.57
2019-03-24T00:39:33.564Z,29.45
2019-03-24T00:42:05.987Z,29.32
2019-03-24T00:44:38.382Z,27.55
2019-03-24T00:47:10.781Z,29.20
2019-03-24T00:49:43.383Z,28.27
2019-03-24T00:52:15.811Z,30.17
2019-03-24T00:54:48.312Z,29.57
2019-03-24T00:57:20.593Z,31.05
2019-03-24T00:59:53.303Z,30.35
2019-03-24T01:02:25.845Z,30.85
2019-03-24T01:04:59.782Z,31.12
2019-03-24T01:07:32.405Z,29.45
2019-03-24T01:10:10.390Z,30.85
2019-03-24T01:12:42.944Z,30.57
2019-03-24T01:15:17.045Z,29.72
2019-03-24T01:17:49.428Z,31.30
2019-03-24T01:22:53.742Z,31.55
2019-03-24T01:25:26.322Z,29.90
2019-03-24T01:27:58.777Z,32.03
2019-03-24T01:30:32.705Z,32.23
2019-03-24T01:33:05.319Z,31.23
2019-03-24T01:35:39.611Z,31.95
2019-03-24T01:38:12.064Z,33.73
2019-03-24T01:40:44.423Z,33.45
2019-03-24T01:43:16.718Z,32.53
2019-03-24T01:45:58.221Z,34.73
2019-03-24T01:48:23.427Z,33.80
2019-03-24T01:53:30.401Z,31.70
2019-03-24T01:56:04.494Z,33.07
2019-03-24T02:01:10.331Z,33.35
2019-03-24T02:03:42.761Z,33.92
2019-03-24T02:06:15.306Z,33.98
2019-03-24T02:08:47.793Z,34.53
2019-03-24T02:11:20.425Z,33.00
2019-03-24T02:13:52.853Z,33.05
2019-03-24T02:16:25.322Z,34.55
2019-03-24T02:18:57.806Z,34.60
2019-03-24T02:21:30.658Z,32.38
2019-03-24T02:24:03.302Z,33.28
2019-03-24T02:26:35.550Z,33.73
2019-03-24T02:29:08.869Z,33.40
2019-03-24T02:31:41.304Z,33.55
2019-03-24T02:34:13.579Z,34.65
2019-03-24T02:36:46.772Z,34.53
2019-03-24T02:39:19.345Z,34.08
2019-03-24T02:41:51.284Z,33.85
2019-03-24T02:44:23.611Z,33.80
2019-03-24T02:46:56.286Z,31.62
2019-03-24T02:49:28.599Z,32.42
2019-03-24T02:52:01.054Z,33.95
2019-03-24T02:54:33.424Z,31.77
2019-03-24T02:57:05.835Z,33.85
2019-03-24T02:59:38.306Z,33.33
2019-03-24T03:02:13.686Z,31.80
2019-03-24T03:04:47.650Z,34.70
2019-03-24T03:07:20.296Z,33.42
2019-03-24T03:09:52.643Z,33.40
2019-03-24T03:12:25.007Z,35.50
2019-03-24T03:14:59.021Z,34.53
2019-03-24T03:17:31.424Z,33.42
2019-03-24T03:22:35.617Z,30.75
2019-03-24T03:25:10.329Z,33.23
2019-03-24T03:27:42.750Z,31.57
2019-03-24T03:30:17.019Z,32.33
2019-03-24T03:32:53.749Z,32.55
2019-03-24T03:35:26.295Z,32.45
2019-03-24T03:37:58.703Z,33.75
2019-03-24T03:40:31.271Z,34.55
2019-03-24T03:43:03.628Z,33.50
2019-03-24T03:45:39.134Z,35.17
2019-03-24T03:48:10.451Z,34.35
2019-03-24T03:50:42.858Z,32.30
2019-03-24T03:53:15.385Z,33.92
2019-03-24T03:55:47.881Z,34.35
2019-03-24T03:58:21.303Z,33.53
2019-03-24T04:00:53.674Z,34.83
2019-03-24T04:03:26.159Z,33.75
2019-03-24T04:05:58.575Z,31.80
2019-03-24T04:08:31.074Z,32.78
2019-03-24T04:11:03.371Z,33.23
2019-03-24T04:13:36.269Z,34.05
2019-03-24T04:16:08.676Z,32.75
2019-03-24T04:18:41.305Z,33.05
2019-03-24T04:21:13.828Z,33.48
2019-03-24T04:23:46.531Z,34.65
2019-03-24T04:26:20.844Z,32.70
2019-03-24T04:28:53.533Z,32.58
2019-03-24T04:33:57.525Z,33.48
2019-03-24T04:36:30.248Z,34.43
2019-03-24T04:39:02.641Z,35.40
2019-03-24T04:41:35.292Z,34.25
2019-03-24T04:44:07.823Z,37.78
2019-03-24T04:46:40.607Z,37.58
2019-03-24T04:49:17.334Z,38.58
2019-03-24T04:51:49.629Z,35.48
2019-03-24T04:54:24.552Z,36.68
2019-03-24T04:56:56.837Z,36.20
2019-03-24T04:59:29.324Z,37.05
2019-03-24T05:02:01.904Z,35.55
2019-03-24T05:04:34.295Z,37.35
2019-03-24T05:07:06.691Z,37.88
2019-03-24T05:09:39.837Z,36.33
2019-03-24T05:12:12.437Z,35.50
2019-03-24T05:17:26.531Z,36.58
2019-03-24T05:19:50.458Z,34.63
2019-03-24T05:24:54.440Z,37.28
2019-03-24T05:27:26.839Z,37.55
2019-03-24T05:29:59.325Z,39.20
2019-03-24T05:32:31.640Z,38.13
2019-03-24T05:35:05.780Z,38.00
2019-03-24T05:37:38.656Z,36.50
2019-03-24T05:40:11.454Z,36.20
2019-03-24T05:45:16.578Z,36.63
2019-03-24T05:47:49.026Z,36.90
2019-03-24T05:50:21.654Z,35.88
2019-03-24T05:52:54.030Z,35.05
2019-03-24T05:59:31.444Z,37.40
2019-03-24T06:04:35.339Z,34.83
2019-03-24T06:07:08.051Z,34.38
2019-03-24T06:09:40.344Z,34.05
2019-03-24T06:12:13.336Z,33.75
2019-03-24T06:14:45.642Z,33.38
2019-03-24T06:17:18.368Z,34.23
2019-03-24T06:19:50.652Z,34.40
2019-03-24T06:22:23.037Z,34.00
2019-03-24T06:24:55.440Z,34.05
2019-03-24T06:27:27.762Z,34.70
2019-03-24T06:30:00.329Z,34.92
2019-03-24T06:32:32.705Z,33.58
2019-03-24T06:35:08.294Z,34.58
2019-03-24T06:37:40.548Z,34.80
2019-03-24T06:40:13.394Z,33.40
2019-03-24T06:42:45.761Z,34.10
2019-03-24T06:45:28.004Z,33.67
2019-03-24T06:47:57.933Z,33.65
2019-03-24T06:50:26.626Z,33.02
2019-03-24T06:52:59.033Z,33.50
2019-03-24T06:55:31.518Z,32.88
2019-03-24T06:58:06.290Z,33.07
2019-03-24T07:00:38.620Z,34.33
2019-03-24T07:03:11.171Z,32.25
2019-03-24T07:05:43.874Z,32.15
2019-03-24T07:08:19.363Z,33.48
2019-03-24T07:13:23.548Z,35.80
2019-03-24T07:15:55.967Z,33.05
2019-03-24T07:18:30.760Z,35.13
2019-03-24T07:21:03.515Z,33.63
2019-03-24T07:23:35.778Z,34.40
2019-03-24T07:26:08.460Z,33.15
2019-03-24T07:28:40.801Z,32.90
2019-03-24T07:31:13.283Z,35.35
2019-03-24T07:33:47.321Z,35.83
2019-03-24T07:38:51.462Z,37.08
2019-03-24T07:43:55.614Z,35.85
2019-03-24T07:46:28.157Z,37.73
2019-03-24T07:49:00.665Z,36.17
2019-03-24T07:51:33.247Z,35.05
2019-03-24T07:54:05.515Z,37.08
2019-03-24T07:56:38.261Z,37.75
2019-03-24T07:59:10.657Z,37.90
2019-03-24T08:01:44.873Z,38.02
2019-03-24T08:04:17.314Z,38.75
2019-03-24T08:06:50.711Z,40.63
2019-03-24T08:09:23.299Z,39.48
2019-03-24T08:11:55.677Z,41.83
2019-03-24T08:14:28.290Z,41.67
2019-03-24T08:17:00.642Z,43.90
2019-03-24T08:19:33.381Z,44.55
2019-03-24T08:24:37.677Z,46.40
2019-03-24T08:27:10.310Z,47.45
2019-03-24T08:29:42.635Z,46.02
2019-03-24T08:32:15.125Z,47.83
2019-03-24T08:34:48.536Z,47.62
2019-03-24T08:37:21.034Z,49.80
2019-03-24T08:39:53.377Z,51.88
2019-03-24T08:42:25.822Z,51.05
2019-03-24T08:44:58.337Z,52.35
2019-03-24T08:47:31.115Z,54.63
2019-03-24T08:50:03.674Z,53.50
2019-03-24T08:52:36.053Z,52.55
2019-03-24T08:55:10.285Z,52.45
2019-03-24T08:57:43.715Z,51.08
2019-03-24T09:00:16.297Z,52.08
2019-03-24T09:02:48.749Z,52.65
2019-03-24T09:05:21.307Z,56.18
2019-03-24T09:07:53.725Z,54.93
2019-03-24T09:10:27.297Z,56.05
2019-03-24T09:12:59.608Z,55.15
2019-03-24T09:15:32.273Z,53.42
2019-03-24T09:18:04.586Z,51.77
2019-03-24T09:20:41.900Z,51.90
2019-03-24T09:23:12.332Z,52.25
2019-03-24T09:25:44.881Z,51.90
2019-03-24T09:28:17.424Z,50.92
2019-03-24T09:33:21.363Z,51.68
2019-03-24T09:35:53.789Z,52.50
2019-03-24T09:38:26.282Z,51.13
2019-03-24T09:40:58.564Z,48.17
2019-03-24T09:43:31.291Z,48.33
2019-03-24T09:46:03.744Z,50.33
2019-03-24T09:48:36.303Z,52.33
2019-03-24T09:51:08.922Z,54.70
2019-03-24T09:53:44.715Z,52.90
2019-03-24T09:56:18.318Z,52.45
2019-03-24T09:58:50.773Z,53.48
2019-03-24T10:01:23.324Z,53.00
2019-03-24T10:03:55.883Z,54.85
2019-03-24T10:06:28.397Z,53.35
2019-03-24T10:09:00.843Z,53.70
2019-03-24T10:11:35.294Z,52.55
2019-03-24T10:14:07.784Z,50.58
2019-03-24T10:16:40.285Z,50.73
2019-03-24T10:19:14.134Z,50.95
2019-03-24T10:24:21.362Z,51.40
2019-03-24T10:26:54.116Z,50.38
2019-03-24T10:29:35.664Z,49.45
2019-03-24T10:32:10.327Z,47.88
2019-03-24T10:34:42.894Z,50.08
2019-03-24T10:37:15.439Z,50.33
2019-03-24T10:39:48.303Z,51.88
2019-03-24T10:42:28.879Z,51.55
2019-03-24T10:45:07.478Z,50.20
2019-03-24T10:47:40.295Z,51.28
2019-03-24T10:50:14.339Z,49.25
2019-03-24T10:52:49.086Z,50.23
2019-03-24T10:55:21.673Z,50.63
2019-03-24T10:57:54.486Z,48.80
2019-03-24T11:00:45.599Z,49.10
2019-03-24T11:03:18.340Z,49.75
2019-03-24T11:05:50.823Z,49.38
2019-03-24T11:08:24.860Z,51.20
2019-03-24T11:10:57.411Z,51.00
2019-03-24T11:16:01.609Z,51.20
2019-03-24T11:18:34.160Z,50.60
2019-03-24T11:21:08.827Z,50.40
2019-03-24T11:23:41.080Z,49.42
2019-03-24T11:26:13.519Z,50.98
2019-03-24T11:28:46.021Z,50.28
2019-03-24T11:31:18.618Z,47.30
2019-03-24T11:33:51.707Z,49.67
2019-03-24T11:36:24.371Z,45.80
2019-03-24T11:41:29.439Z,50.15
2019-03-24T11:46:35.446Z,51.90
2019-03-24T11:49:16.465Z,49.18
2019-03-24T11:51:49.322Z,48.20
2019-03-24T11:56:55.468Z,48.98
2019-03-24T11:59:31.324Z,48.85
2019-03-24T12:04:36.721Z,48.42
2019-03-24T12:07:10.043Z,49.53
2019-03-24T12:09:42.455Z,48.25
2019-03-24T12:14:46.841Z,46.28
2019-03-24T12:17:19.341Z,45.43
2019-03-24T12:19:56.697Z,45.73
2019-03-24T12:22:26.311Z,45.40
2019-03-24T12:24:58.791Z,45.83
2019-03-24T12:27:31.416Z,44.42
2019-03-24T12:32:47.692Z,42.30
2019-03-24T12:35:20.351Z,41.48
2019-03-24T12:40:24.679Z,41.10
2019-03-24T12:42:57.298Z,37.85
2019-03-24T12:45:29.813Z,38.98
2019-03-24T12:48:02.366Z,37.28
2019-03-24T12:53:13.328Z,37.28
2019-03-24T13:00:50.233Z,35.40
2019-03-24T13:03:22.821Z,34.40
2019-03-24T13:05:55.289Z,34.20
2019-03-24T13:10:59.844Z,35.13
2019-03-24T13:13:32.349Z,27.70
2019-03-24T13:16:04.751Z,31.20
2019-03-24T13:18:37.307Z,27.90
2019-03-24T13:21:09.721Z,31.40
2019-03-24T13:23:42.229Z,28.00
2019-03-24T13:26:14.765Z,29.00
2019-03-24T13:28:47.289Z,31.75
2019-03-24T13:31:19.908Z,24.75
2019-03-24T13:33:52.304Z,25.40
2019-03-24T13:36:24.582Z,33.28
2019-03-24T13:38:57.271Z,23.80
2019-03-24T13:41:29.864Z,25.68
2019-03-24T13:44:06.546Z,27.22
2019-03-24T13:46:39.039Z,23.05
2019-03-24T13:49:11.520Z,27.98
2019-03-24T13:51:43.876Z,28.38
2019-03-24T13:54:16.480Z,27.62
2019-03-24T13:59:25.456Z,26.97
2019-03-24T14:04:29.820Z,26.90
2019-03-24T14:07:02.415Z,26.40
2019-03-24T14:09:35.068Z,26.12
2019-03-24T14:12:07.695Z,26.30
2019-03-24T14:14:40.505Z,26.00
2019-03-24T14:19:44.457Z,28.98
2019-03-24T14:24:50.287Z,26.75
2019-03-24T14:27:22.732Z,29.92
2019-03-24T14:29:55.265Z,30.57
2019-03-24T14:32:27.675Z,27.58
2019-03-24T14:35:00.381Z,28.73
2019-03-24T14:40:05.718Z,26.85
2019-03-24T14:42:38.286Z,25.85
2019-03-24T14:45:12.698Z,25.15
2019-03-24T14:47:45.320Z,28.90
2019-03-24T14:50:19.307Z,25.85
2019-03-24T14:55:23.710Z,29.37
2019-03-24T14:57:56.306Z,28.38
2019-03-24T15:03:17.018Z,29.98
2019-03-24T15:05:49.676Z,28.05
2019-03-24T15:08:22.297Z,32.35
2019-03-24T15:10:54.637Z,32.30
2019-03-24T15:13:27.294Z,33.05
2019-03-24T15:15:59.659Z,29.75
2019-03-24T15:18:32.281Z,30.48
2019-03-24T15:24:08.653Z,28.50
2019-03-24T15:26:53.798Z,28.00
2019-03-24T15:29:26.033Z,24.43
2019-03-24T15:31:58.443Z,28.65
2019-03-24T15:37:02.619Z,20.43
2019-03-24T15:39:35.445Z,24.23
2019-03-24T15:42:08.299Z,24.15
2019-03-24T15:44:40.998Z,27.67
2019-03-24T15:47:13.581Z,29.42
2019-03-24T15:49:46.308Z,27.75
2019-03-24T15:54:51.520Z,33.55
2019-03-24T15:57:24.283Z,30.45
2019-03-24T15:59:56.798Z,31.17
2019-03-24T16:02:29.305Z,28.90
2019-03-24T16:05:01.728Z,33.73
2019-03-24T16:07:34.421Z,29.63
2019-03-24T16:10:11.289Z,30.17
2019-03-24T16:12:44.057Z,32.75
2019-03-24T16:15:16.754Z,31.37
2019-03-24T16:17:51.859Z,28.55
2019-03-24T16:20:23.854Z,33.40
2019-03-24T16:25:37.764Z,34.85
2019-03-24T16:28:10.325Z,32.33
2019-03-24T16:30:42.819Z,32.83
2019-03-24T16:33:16.398Z,33.67
2019-03-24T16:35:49.309Z,32.88
2019-03-24T16:38:21.839Z,30.77
2019-03-24T16:40:54.345Z,35.43
2019-03-24T16:45:58.754Z,35.38
2019-03-24T16:48:36.745Z,35.15
2019-03-24T16:51:05.509Z,36.25
2019-03-24T16:53:38.297Z,36.68
2019-03-24T16:56:10.853Z,36.10
2019-03-24T16:58:43.317Z,34.30
2019-03-24T17:03:48.653Z,35.33
2019-03-24T17:06:21.283Z,36.88
2019-03-24T17:08:53.823Z,36.42
2019-03-24T17:11:26.421Z,35.30
2019-03-24T17:16:30.983Z,32.85
2019-03-24T17:19:05.335Z,37.45
2019-03-24T17:21:49.271Z,32.63
2019-03-24T17:26:47.804Z,33.00
2019-03-24T17:29:20.535Z,31.97
2019-03-24T17:31:53.294Z,37.40
2019-03-24T17:34:28.035Z,37.23
2019-03-24T17:37:00.585Z,36.05
2019-03-24T17:39:34.444Z,36.33
2019-03-24T17:42:07.286Z,36.80
2019-03-24T17:44:39.720Z,37.63
2019-03-24T17:47:12.371Z,37.70
2019-03-24T17:49:44.790Z,37.00
2019-03-24T17:52:17.481Z,37.95
2019-03-24T17:57:31.366Z,38.05
2019-03-24T18:00:05.470Z,39.60
2019-03-24T18:02:39.355Z,36.75
2019-03-24T18:05:12.342Z,33.73
2019-03-24T18:07:44.744Z,35.33
2019-03-24T18:10:19.568Z,37.20
2019-03-24T18:12:52.310Z,37.35
2019-03-24T18:15:25.043Z,39.42
2019-03-24T18:17:58.066Z,37.33
2019-03-24T18:20:37.048Z,36.95
2019-03-24T18:25:41.406Z,36.05
2019-03-24T18:28:13.883Z,43.30
2019-03-24T18:30:46.495Z,44.83
2019-03-24T18:33:19.105Z,40.67
2019-03-24T18:35:54.117Z,46.20
2019-03-24T18:38:28.658Z,54.85
2019-03-24T18:41:01.473Z,43.78
2019-03-24T18:43:35.668Z,41.15
2019-03-24T18:46:08.498Z,44.18
2019-03-24T18:48:41.287Z,45.25
2019-03-24T18:51:14.055Z,44.70
2019-03-24T18:53:46.838Z,43.52
2019-03-24T18:56:19.412Z,41.98
2019-03-24T18:58:53.561Z,41.53
2019-03-24T19:01:26.614Z,43.40
2019-03-24T19:04:01.476Z,41.65
2019-03-24T19:06:34.811Z,43.48
2019-03-24T19:09:10.714Z,43.25
2019-03-24T19:11:45.290Z,42.80
2019-03-24T19:14:17.778Z,42.08
2019-03-24T19:16:50.706Z,42.93
2019-03-24T19:19:23.695Z,44.60
2019-03-24T19:21:56.382Z,44.05
2019-03-24T19:27:00.792Z,41.53
2019-03-24T19:29:33.438Z,43.75
2019-03-24T19:34:37.969Z,41.02
2019-03-24T19:37:10.480Z,39.70
2019-03-24T19:42:15.296Z,39.27
2019-03-24T19:44:47.814Z,39.73
2019-03-24T19:47:20.615Z,39.92
2019-03-24T19:49:53.306Z,38.30
2019-03-24T19:52:26.053Z,39.65
2019-03-24T19:54:59.000Z,40.10
2019-03-24T19:57:31.705Z,41.15
2019-03-24T20:00:05.483Z,40.45
2019-03-24T20:02:39.610Z,39.63
2019-03-24T20:05:12.506Z,38.65
2019-03-24T20:07:48.487Z,36.88
2019-03-24T20:10:21.322Z,36.05
2019-03-24T20:15:26.341Z,36.33
2019-03-24T20:17:59.066Z,35.85
2019-03-24T20:20:31.627Z,36.35
2019-03-24T20:23:04.341Z,36.42
2019-03-24T20:28:11.574Z,37.10
2019-03-24T20:30:43.905Z,36.70
2019-03-24T20:33:16.481Z,38.42
2019-03-24T20:35:49.306Z,35.92
2019-03-24T20:38:22.020Z,38.88
2019-03-24T20:40:54.595Z,35.80
2019-03-24T20:43:27.343Z,34.03
2019-03-24T20:46:00.083Z,35.88
2019-03-24T20:48:32.695Z,35.85
2019-03-24T20:51:05.334Z,36.15
2019-03-24T20:55:23.541Z,38.78
2019-03-24T20:57:56.342Z,43.58
2019-03-24T21:00:35.762Z,49.18
2019-03-24T21:03:10.343Z,43.17
2019-03-24T21:05:44.360Z,38.13
2019-03-24T21:08:17.313Z,34.73
2019-03-24T21:10:50.296Z,35.58
2019-03-24T21:13:22.845Z,35.90
2019-03-24T21:15:55.708Z,36.10
2019-03-24T21:18:28.432Z,35.48
2019-03-24T21:21:02.132Z,39.10
2019-03-24T21:23:34.723Z,38.45
2019-03-24T21:26:07.321Z,42.73
2019-03-24T21:28:42.666Z,39.40
2019-03-24T21:31:15.401Z,38.20
2019-03-24T21:33:48.312Z,35.63
2019-03-24T21:36:22.343Z,34.05
2019-03-24T21:41:08.328Z,30.57
2019-03-24T21:46:16.006Z,37.23
2019-03-24T21:48:48.435Z,31.02
2019-03-24T21:51:24.032Z,31.20
2019-03-24T21:54:01.457Z,30.68
2019-03-24T21:56:34.072Z,31.35
2019-03-24T21:59:06.875Z,28.38
2019-03-24T22:01:39.514Z,26.82
2019-03-24T22:04:12.349Z,26.57
2019-03-24T22:06:44.809Z,22.98
2019-03-24T22:09:17.389Z,24.45
2019-03-24T22:14:23.116Z,22.60
2019-03-24T22:16:55.483Z,22.00
2019-03-24T22:21:59.653Z,21.95
2019-03-24T22:24:32.383Z,22.25
2019-03-24T22:27:04.812Z,21.45
2019-03-24T22:29:37.307Z,22.15
2019-03-24T22:32:09.723Z,22.40
2019-03-24T22:34:42.279Z,22.25
2019-03-24T22:37:16.008Z,22.42
2019-03-24T22:42:20.655Z,24.37
2019-03-24T22:44:53.300Z,22.80
2019-03-24T22:47:46.449Z,23.40
2019-03-24T22:52:50.549Z,22.02
2019-03-24T22:55:22.847Z,22.42
2019-03-24T22:57:55.334Z,21.52
2019-03-24T23:00:35.374Z,21.42
2019-03-24T23:03:09.755Z,21.50
2019-03-24T23:05:42.355Z,18.82
2019-03-24T23:08:14.424Z,21.25
2019-03-24T23:10:46.840Z,21.00
2019-03-24T23:13:19.329Z,21.73
2019-03-24T23:15:51.488Z,28.92
2019-03-24T23:20:55.471Z,23.00
2019-03-24T23:28:31.590Z,24.07
2019-03-24T23:31:04.341Z,24.55
2019-03-24T23:33:37.025Z,25.25
2019-03-24T23:36:09.701Z,24.30
2019-03-24T23:38:42.292Z,25.72
2019-03-24T23:41:14.655Z,25.57
2019-03-24T23:43:47.326Z,25.95
2019-03-24T23:46:19.807Z,27.32
2019-03-24T23:48:52.294Z,26.35
2019-03-24T23:51:25.319Z,26.02
2019-03-24T23:53:57.647Z,27.32
2019-03-24T23:56:30.366Z,25.43
2019-03-24T23:59:02.713Z,25.37
